This is the latest recevied weather packets stored in our database for station/object WX2P-13. If no packets are shown the sender has not sent any weather packets the latest 1 day(s).
| Time | Temp. | Humidity | Pressure | Rain* | Wind** | Luminosity | Snow |
|---|---|---|---|---|---|---|---|
| 1778022443 | 26.11° C | 70% | 1014.7 hPa | 0 mm | 0.45 m/s, 180° | 32 W/m² | - |
| 1778022140 | 26.11° C | 70% | 1015 hPa | 0 mm | 0 m/s | 38 W/m² | - |
| 1778021836 | 26.11° C | 69% | 1015.1 hPa | 0 mm | 0.45 m/s, 179° | 59 W/m² | - |
| 1778021533 | 26.67° C | 69% | 1014.8 hPa | 0 mm | 0.45 m/s, 231° | 76 W/m² | - |
| 1778021229 | 26.67° C | 68% | 1015.1 hPa | 0 mm | 1.34 m/s, 323° | 72 W/m² | - |
| 1778020927 | 26.67° C | 67% | 1015.2 hPa | 0 mm | 0.45 m/s, 190° | 79 W/m² | - |
| 1778020624 | 26.67° C | 67% | 1015.2 hPa | 0 mm | 0.89 m/s, 246° | 71 W/m² | - |
| 1778020320 | 26.67° C | 66% | 1015 hPa | 0 mm | 1.34 m/s, 256° | 86 W/m² | - |
| 1778020016 | 27.22° C | 66% | 1015.2 hPa | 0 mm | 0.89 m/s, 272° | 86 W/m² | - |
| 1778019712 | 27.78° C | 65% | 1015.1 hPa | 0 mm | 1.34 m/s, 293° | 116 W/m² | - |
| 1778019410 | 27.78° C | 65% | 1015.1 hPa | 0 mm | 0.45 m/s, 208° | 85 W/m² | - |
| 1778019106 | 27.78° C | 64% | 1015.1 hPa | 0 mm | 0.89 m/s, 239° | 90 W/m² | - |
| 1778018803 | 27.78° C | 63% | 1015 hPa | 0 mm | 0.89 m/s, 250° | 170 W/m² | - |
| 1778018501 | 28.33° C | 62% | 1015.1 hPa | 0 mm | 0.45 m/s, 237° | 145 W/m² | - |
| 1778018198 | 28.33° C | 62% | 1015 hPa | 0 mm | 1.34 m/s, 320° | 81 W/m² | - |
| 1778017896 | 28.33° C | 61% | 1015 hPa | 0 mm | 0.89 m/s, 265° | 69 W/m² | - |
| 1778017594 | 28.33° C | 60% | 1015.3 hPa | 0 mm | 0.89 m/s, 322° | 68 W/m² | - |
| 1778017291 | 28.33° C | 59% | 1015.3 hPa | 0 mm | 0.89 m/s, 284° | 67 W/m² | - |
| 1778016989 | 28.89° C | 60% | 1015 hPa | 0 mm | 1.34 m/s, 278° | 83 W/m² | - |
| 1778016685 | 28.33° C | 60% | 1014.9 hPa | 0 mm | 0.45 m/s, 232° | 118 W/m² | - |
| 1778016381 | 28.33° C | 59% | 1015.1 hPa | 0 mm | 1.34 m/s, 284° | 91 W/m² | - |
| 1778016079 | 28.89° C | 59% | 1015.1 hPa | 0 mm | 1.34 m/s, 256° | 72 W/m² | - |
| 1778015775 | 28.89° C | 59% | 1015.2 hPa | 0 mm | 0.89 m/s, 175° | 156 W/m² | - |
| 1778015473 | 28.89° C | 58% | 1014.9 hPa | 0 mm | 0.89 m/s, 229° | 133 W/m² | - |
| 1778015169 | 29.44° C | 58% | 1014.9 hPa | 0 mm | 0.45 m/s, 245° | 65 W/m² | - |
* Rain latest hour (hover to see other rain measurements)
** Current wind speed in m/s (hover to see current wind gust speed)